الصفحة الرئيسية
METAR-TAF:

METAR-TAF

مطار :

كرالييفو, صربيا

دائرة عرض: 43-49-07N, خط طول: 020-35-07E, ارتفاع: 209 متر

مراقبة الطقس الحالي

تاريخ ووقت الإصدار 12 دقيقة قبل الساعة 19:00UTC
ريح 7 عقدة من الشمال/الشمال الغربي, الاتجاه يتراوح بين الغرب/الشمال الغربي و الشرق
درجة الحرارة 13°درجة مئوية
الرطوبة 38%
ضغط 1016 hPa
الرؤية 10 كم أو أكثر
الغيوم لا تقل 1500 م ولا وجود لمزنة ركامية السحاب الأسود

METAR: LYKV 041900Z 34007KT 290V100 CAVOK 13/M01 Q1016 NOSIG

زمن: 20:12 (19:12 UTC)

توقعات

تاريخ ووقت الإصدار 2ساعات و 12 دقيقة قبل الساعة 17:00UTC
التوقعات صالحة من04 الساعة 18 UTC إلى 05 الساعة 18 UTC
ريح 7 عقدة من الجنوب الغربي
الرؤية 10 كم أو أكثر
الغيوم لا تقل 1500 م ولا وجود لمزنة ركامية السحاب الأسود

TAF: LYKV 041700Z 0418/0518 23007KT CAVOK TX15/0513Z TNM01/0505Z

أرصاد الطقس والتوقعات من أكثر من 4000 مطار (تقارير الطقس للمطار METAR والتنبؤ بالطقس بالمطارTAF).

المحطات المتاحة هي النقط الصفراء والحمراء على الخريطة.

حرك المؤشر فوق النقطة لمعرفة اسم المحطة.

ثم انقر لمعرفة أرصاد وتوقعات الطقس.

لتغيير الخارطة: اضغط على الأزرار الخضراء مع رمز الصليب الأسود للتكبير. على الزر الأخضر مع شرطة للتصغير، أو على الأسهم الخضراء للخرائط المجاورة.


METAR-TAF: